Time;durP1;ratioP1;P1;durP2;ratioP2;P2;SDS_P1;SDS_P2;PMS_P1;PMS_P2;Temp;Humidity;BMP_temperature;BMP_pressure;BME280_temperature;BME280_humidity;BME280_pressure;Samples;Min_cycle;Max_cycle;Signal;HPM_P1;HPM_P2
2020/12/26 05:45:38;;;;;;;15.23;7.73;;;;;;;;;;6286047;22;884332;-81
2020/12/26 05:48:10;;;;;;;12.35;7.07;;;;;;;;;;6316034;22;20325;-82
2020/12/26 05:52:55;;;;;;;12.70;7.72;;;;;;;;;;5091797;28;20433;-81
2020/12/26 05:55:22;;;;;;;15.75;7.85;;;;;;;;;;5061289;28;20029;-81
2020/12/26 05:57:53;;;;;;;15.73;7.60;;;;;;;;;;5064123;28;20028;-82
2020/12/26 06:02:47;;;;;;;13.90;8.13;;;;;;;;;;5069873;28;20044;-79
2020/12/26 06:05:13;;;;;;;10.98;6.88;;;;;;;;;;5071643;28;20020;-80
2020/12/26 06:07:39;;;;;;;13.20;8.05;;;;;;;;;;5054453;28;20684;-80
2020/12/26 06:10:06;;;;;;;11.82;7.18;;;;;;;;;;5071476;28;20415;-81
2020/12/26 06:12:32;;;;;;;13.50;8.15;;;;;;;;;;5051680;28;20071;-81
2020/12/26 06:14:58;;;;;;;10.95;7.53;;;;;;;;;;5055270;28;20044;-81
2020/12/26 06:17:31;;;;;;;12.35;7.30;;;;;;;;;;5069790;28;20024;-81
2020/12/26 06:20:07;;;;;;;12.55;7.30;;;;;;;;;;5073063;28;20400;-81
2020/12/26 06:22:46;;;;;;;11.07;7.53;;;;;;;;;;5071122;28;20021;-81
2020/12/26 06:25:22;;;;;;;19.00;8.35;;;;;;;;;;5073806;28;20041;-81
2020/12/26 06:27:51;;;;;;;12.27;6.97;;;;;;;;;;5054134;28;20059;-81
2020/12/26 06:30:17;;;;;;;13.52;7.00;;;;;;;;;;5071425;28;20024;-81
2020/12/26 06:32:45;;;;;;;16.65;7.53;;;;;;;;;;5071029;28;20078;-81
2020/12/26 06:35:12;;;;;;;14.57;6.88;;;;;;;;;;5055289;28;20715;-81
2020/12/26 06:37:38;;;;;;;11.13;6.82;;;;;;;;;;5072306;28;20027;-81
2020/12/26 06:40:22;;;;;;;14.85;8.18;;;;;;;;;;5053983;28;20044;-81
2020/12/26 06:42:48;;;;;;;13.70;7.10;;;;;;;;;;5069872;28;20032;-81
2020/12/26 06:47:37;;;;;;;16.10;8.38;;;;;;;;;;5065209;28;20374;-82
2020/12/26 06:50:16;;;;;;;13.73;7.20;;;;;;;;;;5066437;28;20036;-83
2020/12/26 06:55:00;;;;;;;10.38;6.03;;;;;;;;;;5106093;27;20928;-82
2020/12/26 06:57:45;;;;;;;10.75;6.15;;;;;;;;;;5112142;28;20016;-82
2020/12/26 07:00:27;;;;;;;14.25;6.18;;;;;;;;;;5100421;28;20020;-82
2020/12/26 07:03:11;;;;;;;14.40;7.07;;;;;;;;;;5091053;28;20036;-82
2020/12/26 07:05:38;;;;;;;13.63;6.25;;;;;;;;;;5097389;28;20032;-82
2020/12/26 07:08:04;;;;;;;15.23;7.32;;;;;;;;;;5108702;28;20020;-82
2020/12/26 07:10:34;;;;;;;14.27;6.07;;;;;;;;;;5113979;28;20012;-82
2020/12/26 07:13:00;;;;;;;14.90;6.72;;;;;;;;;;5111341;28;20035;-82
2020/12/26 07:15:31;;;;;;;8.15;5.28;;;;;;;;;;5109950;28;20038;-82
2020/12/26 07:17:57;;;;;;;12.73;7.40;;;;;;;;;;5100326;28;20024;-82
2020/12/26 07:20:29;;;;;;;13.80;6.50;;;;;;;;;;5104647;28;20017;-82
2020/12/26 07:23:11;;;;;;;9.48;5.82;;;;;;;;;;5095907;28;20080;-82
2020/12/26 07:25:38;;;;;;;15.90;7.20;;;;;;;;;;5094271;28;20024;-82
2020/12/26 07:28:04;;;;;;;16.70;6.95;;;;;;;;;;5102340;28;20027;-82
2020/12/26 07:30:34;;;;;;;13.60;6.95;;;;;;;;;;5113532;28;20032;-82
2020/12/26 07:33:00;;;;;;;13.07;6.72;;;;;;;;;;5109408;28;20040;-82
2020/12/26 07:35:28;;;;;;;10.50;6.30;;;;;;;;;;5097099;28;20547;-82
2020/12/26 07:37:54;;;;;;;9.25;5.38;;;;;;;;;;5096842;28;20028;-82
2020/12/26 07:40:43;;;;;;;13.80;5.32;;;;;;;;;;5094731;28;20598;-82
2020/12/26 07:43:13;;;;;;;13.25;5.75;;;;;;;;;;5089466;28;20055;-82
2020/12/26 07:45:41;;;;;;;11.57;6.18;;;;;;;;;;5094249;28;20039;-82
2020/12/26 07:48:07;;;;;;;13.18;7.38;;;;;;;;;;5096076;28;20064;-82
2020/12/26 07:50:37;;;;;;;9.50;5.05;;;;;;;;;;5099960;28;20490;-82
2020/12/26 07:53:05;;;;;;;12.38;6.32;;;;;;;;;;5093864;28;20036;-82
2020/12/26 07:55:31;;;;;;;12.00;6.63;;;;;;;;;;5090968;28;20048;-81
2020/12/26 07:58:24;;;;;;;11.23;4.97;;;;;;;;;;5090266;28;20020;-81
2020/12/26 08:00:50;;;;;;;10.98;5.75;;;;;;;;;;5088705;28;20036;-81
2020/12/26 08:03:15;;;;;;;10.70;5.97;;;;;;;;;;5094533;28;20081;-81
2020/12/26 08:05:46;;;;;;;11.10;6.38;;;;;;;;;;5084057;28;20021;-81
2020/12/26 08:08:16;;;;;;;9.38;5.63;;;;;;;;;;5076678;28;20051;-81
2020/12/26 08:10:43;;;;;;;10.75;6.38;;;;;;;;;;5077559;28;20028;-81
2020/12/26 08:13:13;;;;;;;10.68;5.75;;;;;;;;;;5077955;28;20051;-81
2020/12/26 08:15:39;;;;;;;13.15;6.25;;;;;;;;;;5077927;28;20537;-81
2020/12/26 08:18:05;;;;;;;15.40;6.20;;;;;;;;;;5085037;28;20024;-80
2020/12/26 08:20:31;;;;;;;13.35;6.75;;;;;;;;;;5077760;28;20025;-80
2020/12/26 08:22:58;;;;;;;12.60;6.38;;;;;;;;;;5081180;28;20028;-80
2020/12/26 08:25:26;;;;;;;9.32;6.25;;;;;;;;;;5075282;28;20457;-78
2020/12/26 08:27:52;;;;;;;13.80;6.60;;;;;;;;;;5076390;28;20033;-78
2020/12/26 08:30:28;;;;;;;11.40;6.03;;;;;;;;;;5076089;28;20024;-79
2020/12/26 08:33:10;;;;;;;10.85;7.05;;;;;;;;;;5076122;28;20032;-79
2020/12/26 08:35:39;;;;;;;9.70;5.55;;;;;;;;;;5075120;28;20017;-78
2020/12/26 08:38:20;;;;;;;10.15;5.15;;;;;;;;;;5073098;28;20103;-78
2020/12/26 08:40:53;;;;;;;10.63;5.65;;;;;;;;;;5076549;28;20059;-78
2020/12/26 08:43:19;;;;;;;9.52;5.97;;;;;;;;;;5080418;28;20023;-78
2020/12/26 08:45:45;;;;;;;12.45;6.68;;;;;;;;;;5085383;28;20465;-78
2020/12/26 08:48:18;;;;;;;11.80;7.03;;;;;;;;;;5077946;28;20032;-78
2020/12/26 08:50:53;;;;;;;11.57;7.07;;;;;;;;;;5079416;28;20565;-78
2020/12/26 08:53:21;;;;;;;11.25;6.40;;;;;;;;;;5073069;28;20028;-78
2020/12/26 08:55:47;;;;;;;11.75;6.22;;;;;;;;;;5079981;28;20032;-78
2020/12/26 08:58:27;;;;;;;11.95;6.53;;;;;;;;;;5074861;28;20132;-80
2020/12/26 09:00:54;;;;;;;13.88;7.38;;;;;;;;;;5075100;28;20028;-79
2020/12/26 09:03:20;;;;;;;16.88;9.35;;;;;;;;;;5076170;28;20029;-80
2020/12/26 09:05:46;;;;;;;16.10;9.23;;;;;;;;;;5075824;28;20025;-81
2020/12/26 09:08:13;;;;;;;17.90;9.13;;;;;;;;;;5075923;28;20024;-80
2020/12/26 09:10:40;;;;;;;17.13;10.27;;;;;;;;;;5076264;28;20036;-80
2020/12/26 09:13:07;;;;;;;21.45;10.02;;;;;;;;;;5079067;28;20038;-80
2020/12/26 09:15:52;;;;;;;19.90;11.18;;;;;;;;;;5075695;28;20120;-80
2020/12/26 09:18:18;;;;;;;29.20;14.57;;;;;;;;;;5090895;28;20036;-79
2020/12/26 09:20:48;;;;;;;24.90;13.45;;;;;;;;;;5077106;28;20020;-79
2020/12/26 09:23:14;;;;;;;39.70;19.50;;;;;;;;;;5079408;28;20522;-79
2020/12/26 09:25:40;;;;;;;34.58;18.27;;;;;;;;;;5077867;28;20024;-79
2020/12/26 09:28:06;;;;;;;27.27;16.15;;;;;;;;;;5076920;28;20549;-79
2020/12/26 09:30:32;;;;;;;24.20;16.42;;;;;;;;;;5084121;28;20035;-79
2020/12/26 09:32:58;;;;;;;28.25;15.88;;;;;;;;;;5079744;28;20036;-79
2020/12/26 09:35:24;;;;;;;20.38;13.45;;;;;;;;;;5078570;28;20025;-79
2020/12/26 09:37:51;;;;;;;24.73;14.25;;;;;;;;;;5078628;28;20025;-79
2020/12/26 09:40:17;;;;;;;25.50;13.55;;;;;;;;;;5082519;28;20020;-79
2020/12/26 09:42:43;;;;;;;20.75;12.98;;;;;;;;;;5078851;28;20024;-79
2020/12/26 09:45:08;;;;;;;21.23;12.90;;;;;;;;;;5078282;28;20025;-79
2020/12/26 09:47:34;;;;;;;16.95;10.60;;;;;;;;;;5073618;28;20032;-80
2020/12/26 09:50:00;;;;;;;24.13;12.70;;;;;;;;;;5072204;28;20034;-80
2020/12/26 09:52:26;;;;;;;25.15;15.23;;;;;;;;;;5073748;28;20079;-79
2020/12/26 09:54:52;;;;;;;25.45;13.93;;;;;;;;;;5073355;28;20036;-80
2020/12/26 09:57:18;;;;;;;19.70;11.75;;;;;;;;;;5072171;28;20028;-80
2020/12/26 09:59:44;;;;;;;20.33;12.10;;;;;;;;;;5071484;28;20033;-80
2020/12/26 10:02:10;;;;;;;21.27;12.50;;;;;;;;;;5074358;28;20553;-80
2020/12/26 10:06:55;;;;;;;23.13;11.98;;;;;;;;;;5079800;27;20377;-81
2020/12/26 10:09:21;;;;;;;20.10;11.63;;;;;;;;;;5066432;28;20036;-81
2020/12/26 10:11:47;;;;;;;19.92;11.75;;;;;;;;;;5054073;28;20017;-81
2020/12/26 10:14:13;;;;;;;23.92;13.40;;;;;;;;;;5075226;28;20155;-81
2020/12/26 10:16:39;;;;;;;24.42;13.50;;;;;;;;;;5059657;28;20025;-81
2020/12/26 10:19:06;;;;;;;22.70;12.23;;;;;;;;;;5079861;28;20044;-81
2020/12/26 10:21:31;;;;;;;23.35;12.48;;;;;;;;;;5081256;28;20085;-82
2020/12/26 10:23:58;;;;;;;25.35;13.35;;;;;;;;;;5062081;28;20070;-82
2020/12/26 10:26:24;;;;;;;30.42;14.65;;;;;;;;;;5076705;28;20477;-81
2020/12/26 10:28:50;;;;;;;20.33;13.15;;;;;;;;;;5076236;28;20031;-81
2020/12/26 10:31:16;;;;;;;22.70;12.20;;;;;;;;;;5055185;28;20025;-82
2020/12/26 10:33:43;;;;;;;25.52;13.15;;;;;;;;;;5062029;28;20083;-82
2020/12/26 10:36:09;;;;;;;22.67;13.82;;;;;;;;;;5050789;28;20025;-82
2020/12/26 10:38:35;;;;;;;19.42;11.73;;;;;;;;;;5077315;28;20036;-81
2020/12/26 10:41:02;;;;;;;20.17;12.23;;;;;;;;;;5082598;28;20033;-81
2020/12/26 10:43:28;;;;;;;21.38;10.93;;;;;;;;;;5082856;28;20130;-82
2020/12/26 10:45:54;;;;;;;18.98;11.85;;;;;;;;;;5062398;28;20063;-81
2020/12/26 10:48:20;;;;;;;20.83;10.57;;;;;;;;;;5064176;28;20472;-82
2020/12/26 10:50:46;;;;;;;18.90;11.20;;;;;;;;;;5084564;28;20054;-81
2020/12/26 10:53:12;;;;;;;23.15;12.43;;;;;;;;;;5065033;28;20048;-81
2020/12/26 10:55:38;;;;;;;24.38;13.18;;;;;;;;;;5085587;28;20116;-81
2020/12/26 10:58:04;;;;;;;29.98;15.32;;;;;;;;;;5081664;28;20433;-81
2020/12/26 11:00:30;;;;;;;24.58;13.85;;;;;;;;;;5065752;28;20032;-81
2020/12/26 11:02:56;;;;;;;29.63;13.48;;;;;;;;;;5078056;28;20579;-82
2020/12/26 11:05:22;;;;;;;19.80;12.07;;;;;;;;;;5082434;28;20060;-81
2020/12/26 11:07:49;;;;;;;21.80;11.30;;;;;;;;;;5076291;28;20032;-82
2020/12/26 11:10:15;;;;;;;20.30;11.85;;;;;;;;;;5067300;28;20023;-81
2020/12/26 11:12:41;;;;;;;19.35;10.10;;;;;;;;;;5065563;28;20013;-81
2020/12/26 11:15:07;;;;;;;18.52;9.77;;;;;;;;;;5061710;28;20021;-81
2020/12/26 11:17:33;;;;;;;25.73;11.02;;;;;;;;;;5063551;28;20337;-81
2020/12/26 11:19:59;;;;;;;21.77;11.45;;;;;;;;;;5068517;28;20032;-82
2020/12/26 11:22:25;;;;;;;20.95;11.00;;;;;;;;;;5037669;28;20056;-81
2020/12/26 11:24:51;;;;;;;25.42;12.00;;;;;;;;;;5042443;28;20680;-81
2020/12/26 11:27:17;;;;;;;23.65;12.07;;;;;;;;;;5032550;28;20378;-81
2020/12/26 11:29:42;;;;;;;29.30;13.05;;;;;;;;;;5059022;28;20086;-81
2020/12/26 11:32:08;;;;;;;23.77;11.68;;;;;;;;;;5043937;28;20029;-82
2020/12/26 11:34:34;;;;;;;26.13;12.55;;;;;;;;;;5042700;28;20036;-81
2020/12/26 11:39:19;;;;;;;26.80;12.27;;;;;;;;;;5063158;28;20349;-81
2020/12/26 11:41:45;;;;;;;22.65;11.55;;;;;;;;;;5058094;28;20090;-81
2020/12/26 11:44:11;;;;;;;35.90;16.85;;;;;;;;;;5045647;28;20033;-81
2020/12/26 11:46:37;;;;;;;26.05;13.00;;;;;;;;;;5041010;28;20037;-82
2020/12/26 11:49:03;;;;;;;27.15;13.90;;;;;;;;;;5048638;28;20086;-81
2020/12/26 11:51:29;;;;;;;29.25;14.60;;;;;;;;;;5050726;28;20025;-81
2020/12/26 11:53:55;;;;;;;20.45;11.50;;;;;;;;;;5048791;28;20036;-81
2020/12/26 11:56:22;;;;;;;26.35;12.43;;;;;;;;;;5054059;28;20432;-81
2020/12/26 11:58:48;;;;;;;30.60;16.38;;;;;;;;;;5047011;28;20397;-81
2020/12/26 12:01:18;;;;;;;32.03;16.08;;;;;;;;;;5044288;28;20009;-81
2020/12/26 12:03:45;;;;;;;34.38;18.00;;;;;;;;;;5043958;28;20469;-81
2020/12/26 12:06:12;;;;;;;27.20;14.77;;;;;;;;;;5050267;28;20021;-81
2020/12/26 12:08:38;;;;;;;24.15;13.57;;;;;;;;;;5058292;28;20037;-82
2020/12/26 12:11:04;;;;;;;26.98;12.75;;;;;;;;;;5042083;28;20036;-81
2020/12/26 12:13:30;;;;;;;25.25;12.15;;;;;;;;;;5046503;28;20062;-80
2020/12/26 12:15:58;;;;;;;18.98;11.38;;;;;;;;;;5036207;28;20087;-80
2020/12/26 12:18:24;;;;;;;20.05;11.63;;;;;;;;;;5044285;28;20030;-81
2020/12/26 12:20:50;;;;;;;21.98;11.65;;;;;;;;;;5048073;28;20033;-81
2020/12/26 12:23:16;;;;;;;21.08;12.15;;;;;;;;;;5041442;28;20029;-81
2020/12/26 12:25:42;;;;;;;27.85;14.25;;;;;;;;;;5038994;28;20060;-81
2020/12/26 12:28:08;;;;;;;22.80;12.98;;;;;;;;;;5040907;28;20052;-81
2020/12/26 12:30:34;;;;;;;23.00;13.15;;;;;;;;;;5038155;28;20393;-82
2020/12/26 12:33:09;;;;;;;23.27;12.27;;;;;;;;;;5040769;28;20439;-82
2020/12/26 12:35:44;;;;;;;20.90;11.85;;;;;;;;;;5043631;28;20029;-82
2020/12/26 12:38:10;;;;;;;22.27;14.20;;;;;;;;;;5049741;28;20098;-82
2020/12/26 12:40:36;;;;;;;22.25;11.73;;;;;;;;;;5045547;28;20057;-82
2020/12/26 12:43:02;;;;;;;19.42;12.20;;;;;;;;;;5046693;28;20021;-82
2020/12/26 12:45:28;;;;;;;24.67;13.23;;;;;;;;;;5047602;28;20022;-81
2020/12/26 12:47:54;;;;;;;23.20;13.85;;;;;;;;;;5059903;28;20036;-82
2020/12/26 12:50:20;;;;;;;27.42;14.90;;;;;;;;;;5049559;28;20047;-82
2020/12/26 12:52:46;;;;;;;21.27;12.05;;;;;;;;;;5046747;28;20548;-81
2020/12/26 12:55:12;;;;;;;22.20;11.48;;;;;;;;;;5044379;28;20068;-82
2020/12/26 12:57:38;;;;;;;18.95;11.30;;;;;;;;;;5046611;28;20392;-82
2020/12/26 13:00:05;;;;;;;17.63;10.02;;;;;;;;;;5038387;28;20029;-82
2020/12/26 13:02:30;;;;;;;19.58;10.02;;;;;;;;;;5037369;28;20028;-83
2020/12/26 13:04:56;;;;;;;18.48;10.90;;;;;;;;;;5035509;28;20446;-82
2020/12/26 13:07:23;;;;;;;21.95;12.30;;;;;;;;;;5054546;23;20060;-83
2020/12/26 13:09:49;;;;;;;18.55;11.27;;;;;;;;;;5033871;28;20470;-84
2020/12/26 13:12:15;;;;;;;28.83;13.32;;;;;;;;;;5031958;28;20025;-84
2020/12/26 13:14:41;;;;;;;25.25;13.23;;;;;;;;;;5027945;28;20460;-83
2020/12/26 13:17:07;;;;;;;21.02;9.93;;;;;;;;;;5049008;28;20020;-84
2020/12/26 13:19:32;;;;;;;16.27;8.80;;;;;;;;;;5045349;28;20025;-83
2020/12/26 13:22:02;;;;;;;23.23;11.32;;;;;;;;;;5040615;28;20029;-83
2020/12/26 13:24:27;;;;;;;20.15;11.10;;;;;;;;;;5041052;28;20025;-83
2020/12/26 13:26:53;;;;;;;20.80;10.07;;;;;;;;;;5046299;28;20098;-84
2020/12/26 13:29:19;;;;;;;17.45;10.60;;;;;;;;;;5059212;28;20044;-84
2020/12/26 13:31:46;;;;;;;23.13;9.90;;;;;;;;;;5047114;28;20042;-83
2020/12/26 13:34:12;;;;;;;19.30;10.38;;;;;;;;;;5041177;28;20495;-83
2020/12/26 13:36:39;;;;;;;18.70;8.82;;;;;;;;;;5028277;28;20067;-83
2020/12/26 13:39:06;;;;;;;18.00;10.07;;;;;;;;;;5047935;28;20028;-83
2020/12/26 13:41:35;;;;;;;21.17;9.98;;;;;;;;;;5051426;28;20112;-84
2020/12/26 13:44:01;;;;;;;24.95;10.75;;;;;;;;;;5043308;28;20025;-83
2020/12/26 13:46:27;;;;;;;19.88;10.13;;;;;;;;;;5048289;28;20033;-81
2020/12/26 13:48:53;;;;;;;17.08;9.73;;;;;;;;;;5057020;28;20075;-83
2020/12/26 13:51:22;;;;;;;25.95;13.45;;;;;;;;;;5047851;28;20120;-83
2020/12/26 13:56:07;;;;;;;33.20;17.00;;;;;;;;;;5117055;27;20369;-84
2020/12/26 13:58:36;;;;;;;35.08;18.40;;;;;;;;;;5098457;28;20031;-84
2020/12/26 14:01:03;;;;;;;23.67;14.02;;;;;;;;;;5110491;28;20051;-84
2020/12/26 14:03:31;;;;;;;23.35;12.50;;;;;;;;;;5091374;28;20089;-84
2020/12/26 14:05:57;;;;;;;24.88;13.30;;;;;;;;;;5084742;28;20028;-84
2020/12/26 14:08:23;;;;;;;22.55;11.75;;;;;;;;;;5092518;28;20426;-85
2020/12/26 14:10:49;;;;;;;18.95;10.57;;;;;;;;;;5098551;28;20028;-85
2020/12/26 14:13:15;;;;;;;20.88;12.18;;;;;;;;;;5099396;28;20032;-84
2020/12/26 14:15:41;;;;;;;22.27;11.77;;;;;;;;;;5097819;28;20032;-85
2020/12/26 14:18:08;;;;;;;20.75;11.13;;;;;;;;;;5098819;28;20039;-84
2020/12/26 14:20:34;;;;;;;29.33;13.50;;;;;;;;;;5090701;28;20380;-84
2020/12/26 14:23:00;;;;;;;23.13;11.93;;;;;;;;;;5096035;28;20032;-84
2020/12/26 14:25:26;;;;;;;22.77;12.98;;;;;;;;;;5083389;28;20028;-85
2020/12/26 14:27:51;;;;;;;25.63;12.40;;;;;;;;;;5093248;28;20032;-86
2020/12/26 14:30:17;;;;;;;26.65;13.80;;;;;;;;;;5087093;28;20039;-84
2020/12/26 14:32:43;;;;;;;25.92;12.82;;;;;;;;;;5096681;28;20185;-82
2020/12/26 14:35:09;;;;;;;25.67;13.68;;;;;;;;;;5096060;28;20032;-82
2020/12/26 14:37:35;;;;;;;38.65;16.00;;;;;;;;;;5093064;28;20368;-83
2020/12/26 14:40:01;;;;;;;32.42;15.25;;;;;;;;;;5074106;28;20024;-82
2020/12/26 14:42:27;;;;;;;35.60;17.05;;;;;;;;;;5087821;28;20033;-82
2020/12/26 14:44:53;;;;;;;36.08;16.17;;;;;;;;;;5094524;28;20028;-82
2020/12/26 14:47:19;;;;;;;37.47;17.67;;;;;;;;;;5082717;28;20066;-83
2020/12/26 14:49:45;;;;;;;35.60;16.10;;;;;;;;;;5075373;28;20484;-82
2020/12/26 14:52:11;;;;;;;37.50;17.50;;;;;;;;;;5090388;28;20411;-82
2020/12/26 14:54:37;;;;;;;35.47;15.90;;;;;;;;;;5095220;28;20108;-82
2020/12/26 14:57:03;;;;;;;46.13;19.77;;;;;;;;;;5096976;28;20145;-82
2020/12/26 14:59:28;;;;;;;40.45;18.73;;;;;;;;;;5091558;28;20107;-82
2020/12/26 15:01:54;;;;;;;29.63;15.63;;;;;;;;;;5095392;28;20110;-82
2020/12/26 15:04:20;;;;;;;39.03;19.77;;;;;;;;;;5087498;28;20095;-81
2020/12/26 15:06:48;;;;;;;36.00;18.20;;;;;;;;;;5081939;28;20031;-82
2020/12/26 15:09:14;;;;;;;32.00;17.08;;;;;;;;;;5087598;28;20024;-82
2020/12/26 15:11:40;;;;;;;32.55;15.65;;;;;;;;;;5088747;28;20043;-82
2020/12/26 15:14:06;;;;;;;28.52;14.65;;;;;;;;;;5070935;28;20048;-83
2020/12/26 15:16:32;;;;;;;30.70;15.57;;;;;;;;;;5074659;28;20400;-82
2020/12/26 15:19:02;;;;;;;40.08;16.60;;;;;;;;;;5080740;28;20019;-82
2020/12/26 15:21:28;;;;;;;48.05;22.30;;;;;;;;;;5065428;28;20021;-83
2020/12/26 15:23:54;;;;;;;44.78;21.33;;;;;;;;;;5074797;28;20020;-82
2020/12/26 15:26:20;;;;;;;32.97;16.45;;;;;;;;;;5076648;28;20028;-81
2020/12/26 15:28:46;;;;;;;33.40;16.38;;;;;;;;;;5073229;28;20025;-82
2020/12/26 15:31:12;;;;;;;37.25;16.83;;;;;;;;;;5073034;28;20062;-81
2020/12/26 15:33:37;;;;;;;32.95;16.85;;;;;;;;;;5073639;28;20024;-82
2020/12/26 15:36:03;;;;;;;26.55;14.13;;;;;;;;;;5080259;28;20393;-82
2020/12/26 15:38:29;;;;;;;24.83;12.93;;;;;;;;;;5073041;28;20029;-82
2020/12/26 15:40:56;;;;;;;19.95;10.82;;;;;;;;;;5074484;28;20422;-81
2020/12/26 15:43:22;;;;;;;23.15;10.57;;;;;;;;;;5072302;28;20477;-81
2020/12/26 15:45:49;;;;;;;24.63;12.48;;;;;;;;;;5070977;28;20035;-82
2020/12/26 15:48:15;;;;;;;26.98;13.73;;;;;;;;;;5066270;28;20025;-82
2020/12/26 15:50:41;;;;;;;29.65;13.88;;;;;;;;;;5067065;28;20039;-82
2020/12/26 15:53:07;;;;;;;21.60;11.77;;;;;;;;;;5070866;28;20599;-82
2020/12/26 15:55:33;;;;;;;20.95;11.05;;;;;;;;;;5072910;28;20040;-82
2020/12/26 15:57:59;;;;;;;26.27;12.68;;;;;;;;;;5069839;28;20035;-82
2020/12/26 16:00:26;;;;;;;20.33;11.38;;;;;;;;;;5075206;28;20388;-84
2020/12/26 16:02:51;;;;;;;18.75;10.40;;;;;;;;;;5072519;28;20103;-82
2020/12/26 16:05:18;;;;;;;17.92;9.13;;;;;;;;;;5072558;28;20441;-83
2020/12/26 16:07:43;;;;;;;18.27;10.30;;;;;;;;;;5077148;28;20029;-83
2020/12/26 16:10:09;;;;;;;23.88;13.52;;;;;;;;;;5081565;28;20030;-82
2020/12/26 16:12:35;;;;;;;27.27;14.43;;;;;;;;;;5077434;28;20413;-82
2020/12/26 16:15:01;;;;;;;31.15;16.63;;;;;;;;;;5090062;28;20017;-82
2020/12/26 16:17:27;;;;;;;37.72;18.95;;;;;;;;;;5082526;28;20017;-81
2020/12/26 16:19:53;;;;;;;30.30;17.77;;;;;;;;;;5078661;28;20031;-82
2020/12/26 16:22:19;;;;;;;33.20;17.05;;;;;;;;;;5071379;28;20025;-81
2020/12/26 16:24:45;;;;;;;33.63;16.73;;;;;;;;;;5061698;28;20039;-81
2020/12/26 16:29:30;;;;;;;24.92;13.27;;;;;;;;;;5051031;27;20893;-81
2020/12/26 16:31:56;;;;;;;23.00;11.93;;;;;;;;;;5055025;27;20021;-84
2020/12/26 16:34:22;;;;;;;19.08;9.52;;;;;;;;;;5076169;27;20029;-80
2020/12/26 16:36:48;;;;;;;20.30;9.43;;;;;;;;;;5047042;27;20037;-83
2020/12/26 16:39:15;;;;;;;21.02;10.98;;;;;;;;;;5042452;27;20074;-83
2020/12/26 16:41:40;;;;;;;25.20;12.98;;;;;;;;;;5040529;28;20546;-83
2020/12/26 16:44:07;;;;;;;36.05;16.63;;;;;;;;;;5042998;28;20044;-83
2020/12/26 16:46:37;;;;;;;69.95;34.40;;;;;;;;;;5037454;27;20477;-83
2020/12/26 16:49:03;;;;;;;125.72;66.63;;;;;;;;;;5037545;27;20099;-83
2020/12/26 16:51:29;;;;;;;53.00;29.55;;;;;;;;;;5034461;27;20600;-84
2020/12/26 16:53:58;;;;;;;37.35;21.83;;;;;;;;;;5041622;27;20029;-84
2020/12/26 16:56:24;;;;;;;60.63;30.85;;;;;;;;;;5030873;28;20036;-83
2020/12/26 16:58:50;;;;;;;101.10;55.95;;;;;;;;;;5033496;28;20116;-83
2020/12/26 17:01:17;;;;;;;100.68;56.38;;;;;;;;;;5034814;27;20584;-83
2020/12/26 17:03:44;;;;;;;166.73;95.30;;;;;;;;;;5038015;27;20025;-83
2020/12/26 17:06:24;;;;;;;206.90;104.82;;;;;;;;;;5031508;27;20021;-83
2020/12/26 17:08:53;;;;;;;184.48;95.25;;;;;;;;;;5036202;28;20061;-83
2020/12/26 17:11:19;;;;;;;104.78;58.75;;;;;;;;;;5033385;28;20487;-83
2020/12/26 17:13:48;;;;;;;76.68;42.38;;;;;;;;;;5033589;28;20025;-83
2020/12/26 17:16:15;;;;;;;34.78;23.60;;;;;;;;;;5034404;28;20101;-83
2020/12/26 17:18:42;;;;;;;26.90;15.77;;;;;;;;;;5033514;28;20069;-83
2020/12/26 17:21:08;;;;;;;19.92;12.27;;;;;;;;;;5043801;28;20025;-83
2020/12/26 17:23:34;;;;;;;17.13;9.90;;;;;;;;;;5033698;28;20034;-83
2020/12/26 17:26:00;;;;;;;16.38;9.70;;;;;;;;;;5030407;28;20132;-83
2020/12/26 17:28:47;;;;;;;18.98;10.40;;;;;;;;;;5041040;27;20083;-83
2020/12/26 17:33:32;;;;;;;26.52;14.85;;;;;;;;;;5097405;27;20441;-85
2020/12/26 17:36:11;;;;;;;37.90;16.83;;;;;;;;;;5066812;28;20033;-85
2020/12/26 17:38:39;;;;;;;26.13;14.90;;;;;;;;;;4721405;28;9532213;-84
2020/12/26 17:41:25;;;;;;;24.38;12.85;;;;;;;;;;5021461;28;20022;-85
2020/12/26 17:44:00;;;;;;;28.42;14.27;;;;;;;;;;5022870;28;20501;-85
2020/12/26 17:46:34;;;;;;;16.35;8.90;;;;;;;;;;5043056;28;20375;-85
2020/12/26 17:49:10;;;;;;;17.23;8.13;;;;;;;;;;5036560;28;20029;-85
2020/12/26 17:51:43;;;;;;;24.17;11.65;;;;;;;;;;5036742;28;20029;-85
2020/12/26 17:54:45;;;;;;;25.15;11.60;;;;;;;;;;5021271;28;20033;-85
2020/12/26 18:04:21;;;;;;;15.63;8.68;;;;;;;;;;4991211;28;20450;-84
2020/12/26 18:13:22;;;;;;;18.80;9.52;;;;;;;;;;4998800;28;20030;-85
2020/12/26 18:15:54;;;;;;;18.35;10.07;;;;;;;;;;4982318;28;20450;-85
2020/12/26 18:18:30;;;;;;;18.88;10.23;;;;;;;;;;5002673;28;20121;-85
2020/12/26 18:20:56;;;;;;;55.55;15.25;;;;;;;;;;5021119;28;20544;-83
2020/12/26 18:23:22;;;;;;;18.58;9.68;;;;;;;;;;5040483;28;20022;-83
2020/12/26 18:25:48;;;;;;;12.27;6.45;;;;;;;;;;5028308;28;20030;-83
2020/12/26 18:28:14;;;;;;;15.40;7.47;;;;;;;;;;5025839;28;20026;-84
2020/12/26 18:30:40;;;;;;;15.65;7.25;;;;;;;;;;5031058;28;20026;-82
2020/12/26 18:33:08;;;;;;;14.07;7.93;;;;;;;;;;5036256;28;20079;-83
2020/12/26 18:35:39;;;;;;;16.58;7.88;;;;;;;;;;5022588;28;20029;-83
2020/12/26 18:38:06;;;;;;;15.30;7.47;;;;;;;;;;5039519;28;20367;-83
2020/12/26 18:40:32;;;;;;;12.82;7.32;;;;;;;;;;5039971;28;20440;-83
2020/12/26 18:43:01;;;;;;;13.63;8.20;;;;;;;;;;5046059;28;20059;-83
2020/12/26 18:45:28;;;;;;;14.13;8.50;;;;;;;;;;5035167;28;20033;-83
2020/12/26 18:47:54;;;;;;;16.95;8.90;;;;;;;;;;5034672;28;20036;-83
2020/12/26 18:50:20;;;;;;;16.30;8.20;;;;;;;;;;5027192;28;20025;-85
2020/12/26 18:52:47;;;;;;;25.80;11.57;;;;;;;;;;5033714;28;20478;-86
2020/12/26 18:55:13;;;;;;;30.88;13.57;;;;;;;;;;5025363;28;20037;-85
2020/12/26 18:57:39;;;;;;;22.35;9.13;;;;;;;;;;5032289;28;20045;-85
2020/12/26 19:00:05;;;;;;;9.55;5.93;;;;;;;;;;5027340;28;20100;-84
2020/12/26 19:02:31;;;;;;;15.15;6.03;;;;;;;;;;5029137;28;20034;-85
2020/12/26 19:04:59;;;;;;;10.27;6.45;;;;;;;;;;5029022;28;20497;-85
2020/12/26 19:07:25;;;;;;;23.58;11.27;;;;;;;;;;5034037;28;20029;-85
2020/12/26 19:09:56;;;;;;;15.20;7.25;;;;;;;;;;5033454;28;20449;-84
2020/12/26 19:12:22;;;;;;;12.82;7.35;;;;;;;;;;5031913;28;20036;-85
2020/12/26 19:14:48;;;;;;;11.57;6.82;;;;;;;;;;5027616;28;20037;-84
2020/12/26 19:17:14;;;;;;;8.57;4.72;;;;;;;;;;5036814;28;20029;-85
2020/12/26 19:19:41;;;;;;;12.05;7.57;;;;;;;;;;5039285;28;20432;-85
2020/12/26 19:22:21;;;;;;;20.48;11.80;;;;;;;;;;5030894;28;20030;-85
2020/12/26 19:24:47;;;;;;;32.58;16.67;;;;;;;;;;5018346;28;20032;-85
2020/12/26 19:27:13;;;;;;;47.10;23.92;;;;;;;;;;5035243;28;20022;-84
2020/12/26 19:29:40;;;;;;;72.15;30.70;;;;;;;;;;5035737;28;20022;-84
2020/12/26 19:32:06;;;;;;;78.28;34.30;;;;;;;;;;5027278;28;20032;-84
2020/12/26 19:34:57;;;;;;;94.60;41.38;;;;;;;;;;5036222;28;20029;-85
2020/12/26 19:37:23;;;;;;;73.82;35.67;;;;;;;;;;5038535;28;20029;-85
2020/12/26 19:39:49;;;;;;;48.17;23.58;;;;;;;;;;5037010;28;20030;-85
2020/12/26 19:42:20;;;;;;;28.75;15.27;;;;;;;;;;5014642;28;20783;-85
2020/12/26 19:44:45;;;;;;;13.98;8.35;;;;;;;;;;5035554;28;20032;-85
2020/12/26 19:47:11;;;;;;;13.57;6.78;;;;;;;;;;5034798;28;20033;-85
2020/12/26 19:49:41;;;;;;;10.57;6.68;;;;;;;;;;5043065;28;20029;-86
2020/12/26 19:52:09;;;;;;;11.75;6.55;;;;;;;;;;5029978;28;20493;-85
2020/12/26 19:54:45;;;;;;;10.95;7.07;;;;;;;;;;5023532;28;20047;-85
2020/12/26 19:57:21;;;;;;;9.00;5.43;;;;;;;;;;5033874;28;20017;-86
2020/12/26 19:59:58;;;;;;;14.95;6.65;;;;;;;;;;5031326;28;20018;-84
2020/12/26 20:02:24;;;;;;;20.17;12.60;;;;;;;;;;5016435;28;20040;-84
2020/12/26 20:04:52;;;;;;;21.85;10.60;;;;;;;;;;5031915;28;20030;-85
2020/12/26 20:07:18;;;;;;;18.40;8.32;;;;;;;;;;5032650;28;20091;-84
2020/12/26 20:09:46;;;;;;;15.55;8.60;;;;;;;;;;5034801;28;20076;-84
2020/12/26 20:12:12;;;;;;;23.98;11.80;;;;;;;;;;5032023;28;20026;-86
2020/12/26 20:14:38;;;;;;;25.52;11.55;;;;;;;;;;5031696;28;20080;-84
2020/12/26 20:17:07;;;;;;;22.13;9.25;;;;;;;;;;5034361;28;20032;-85
2020/12/26 20:19:33;;;;;;;9.25;4.20;;;;;;;;;;5036322;28;20175;-84
2020/12/26 20:21:58;;;;;;;7.80;4.40;;;;;;;;;;5031936;28;20052;-84
2020/12/26 20:26:43;;;;;;;6.03;3.08;;;;;;;;;;5121287;27;20347;-84
2020/12/26 20:29:15;;;;;;;9.20;3.75;;;;;;;;;;5101808;28;20100;-84
2020/12/26 20:31:41;;;;;;;8.68;4.65;;;;;;;;;;5075330;28;20020;-83
2020/12/26 20:34:07;;;;;;;7.53;4.70;;;;;;;;;;5070173;28;20054;-83
2020/12/26 20:36:33;;;;;;;9.35;5.57;;;;;;;;;;5069218;28;20020;-83
2020/12/26 20:38:59;;;;;;;6.05;4.20;;;;;;;;;;5072920;28;20491;-83
2020/12/26 20:41:25;;;;;;;7.95;3.17;;;;;;;;;;5068147;28;20063;-83
2020/12/26 20:43:52;;;;;;;8.02;4.07;;;;;;;;;;5091579;28;20488;-82
2020/12/26 20:46:18;;;;;;;10.50;2.80;;;;;;;;;;5105062;28;20052;-85
2020/12/26 20:48:44;;;;;;;6.18;2.45;;;;;;;;;;5089228;28;20020;-83